createdAt,value
2022-11-22T00:02:06.992Z,11.13
2022-11-22T00:04:53.519Z,10.10
2022-11-22T00:07:40.501Z,9.13
2022-11-22T00:10:27.481Z,11.23
2022-11-22T00:13:14.127Z,9.73
2022-11-22T00:16:04.531Z,11.63
2022-11-22T00:18:51.143Z,9.97
2022-11-22T00:21:37.995Z,9.73
2022-11-22T00:24:24.758Z,9.77
2022-11-22T00:27:11.496Z,9.37
2022-11-22T00:29:58.221Z,10.87
2022-11-22T00:32:46.491Z,10.60
2022-11-22T00:35:32.958Z,10.53
2022-11-22T00:38:19.691Z,8.43
2022-11-22T00:41:06.698Z,9.60
2022-11-22T00:43:53.439Z,9.07
2022-11-22T00:46:39.979Z,8.43
2022-11-22T00:49:28.269Z,10.07
2022-11-22T00:52:15.283Z,9.13
2022-11-22T00:55:01.756Z,9.57
2022-11-22T00:57:48.673Z,8.53
2022-11-22T01:00:35.775Z,8.50
2022-11-22T01:03:22.402Z,9.60
2022-11-22T01:06:10.636Z,10.13
2022-11-22T01:08:57.622Z,9.67
2022-11-22T01:11:44.563Z,9.73
2022-11-22T01:14:31.201Z,10.43
2022-11-22T01:17:18.172Z,9.30
2022-11-22T01:20:06.179Z,9.47
2022-11-22T01:22:54.138Z,9.40
2022-11-22T01:25:44.865Z,9.30
2022-11-22T01:28:31.698Z,9.60
2022-11-22T01:31:18.530Z,8.53
2022-11-22T01:34:07.062Z,8.90
2022-11-22T01:36:53.580Z,9.20
2022-11-22T01:39:41.904Z,9.60
2022-11-22T01:42:43.864Z,10.00
2022-11-22T01:45:48.697Z,8.37
2022-11-22T01:48:52.216Z,10.33
2022-11-22T01:51:41.570Z,8.70
2022-11-22T01:54:33.555Z,8.60
2022-11-22T01:57:25.389Z,8.97
2022-11-22T02:00:16.292Z,7.93
2022-11-22T02:03:08.972Z,8.33
2022-11-22T02:05:56.283Z,8.83
2022-11-22T02:08:50.731Z,8.57
2022-11-22T02:11:39.255Z,7.83
2022-11-22T02:14:28.808Z,8.17
2022-11-22T02:17:15.342Z,7.73
2022-11-22T02:20:02.094Z,9.77
2022-11-22T02:22:56.904Z,9.63
2022-11-22T02:25:53.936Z,8.80
2022-11-22T02:28:41.693Z,9.30
2022-11-22T02:31:45.000Z,8.80
2022-11-22T02:34:42.778Z,9.37
2022-11-22T02:37:32.434Z,8.60
2022-11-22T02:40:20.875Z,8.90
2022-11-22T02:43:12.687Z,9.30
2022-11-22T02:46:04.884Z,9.60
2022-11-22T02:48:52.065Z,9.73
2022-11-22T02:51:38.824Z,7.23
2022-11-22T02:54:25.756Z,9.47
2022-11-22T02:57:12.726Z,9.47
2022-11-22T03:00:00.775Z,9.67
2022-11-22T03:02:47.711Z,8.97
2022-11-22T03:05:34.808Z,11.00
2022-11-22T03:08:21.196Z,8.10
2022-11-22T03:11:08.066Z,10.63
2022-11-22T03:13:55.006Z,9.57
2022-11-22T03:16:43.476Z,10.53
2022-11-22T03:19:30.069Z,9.50
2022-11-22T03:22:16.771Z,10.33
2022-11-22T03:25:03.411Z,10.60
2022-11-22T03:27:50.466Z,11.13
2022-11-22T03:30:40.815Z,9.57
2022-11-22T03:33:28.825Z,10.00
2022-11-22T03:36:15.608Z,9.53
2022-11-22T03:39:02.316Z,10.03
2022-11-22T03:41:49.156Z,8.93
2022-11-22T03:44:35.830Z,9.90
2022-11-22T03:47:22.645Z,11.00
2022-11-22T03:50:11.271Z,9.97
2022-11-22T03:52:57.956Z,10.13
2022-11-22T03:55:44.698Z,10.30
2022-11-22T03:58:31.819Z,11.63
2022-11-22T04:01:18.355Z,11.23
2022-11-22T04:04:05.041Z,10.20
2022-11-22T04:06:53.153Z,10.47
2022-11-22T04:09:40.221Z,10.97
2022-11-22T04:12:26.953Z,9.73
2022-11-22T04:15:12.767Z,11.70
2022-11-22T04:17:59.692Z,12.43
2022-11-22T04:21:03.990Z,11.13
2022-11-22T04:24:12.081Z,11.00
2022-11-22T04:26:58.039Z,10.63
2022-11-22T04:29:44.843Z,10.57
2022-11-22T04:32:48.703Z,9.77
2022-11-22T04:35:35.359Z,9.73
2022-11-22T04:38:23.209Z,8.80
2022-11-22T04:41:11.560Z,11.17
2022-11-22T04:44:15.867Z,11.00
2022-11-22T04:47:02.512Z,7.23
2022-11-22T04:49:49.361Z,10.90
2022-11-22T04:52:53.548Z,11.93
2022-11-22T04:55:40.480Z,10.90
2022-11-22T04:58:28.411Z,10.10
2022-11-22T05:01:15.046Z,9.87
2022-11-22T05:04:01.645Z,9.00
2022-11-22T05:06:48.435Z,10.40
2022-11-22T05:09:35.194Z,12.07
2022-11-22T05:12:22.078Z,10.37
2022-11-22T05:15:11.773Z,10.33
2022-11-22T05:17:58.208Z,11.03
2022-11-22T05:20:45.055Z,11.03
2022-11-22T05:23:49.272Z,11.73
2022-11-22T05:26:37.551Z,11.00
2022-11-22T05:29:24.311Z,11.70
2022-11-22T05:32:12.608Z,12.33
2022-11-22T05:34:59.849Z,13.13
2022-11-22T05:37:46.655Z,12.03
2022-11-22T05:40:33.454Z,12.60
2022-11-22T05:43:20.183Z,10.47
2022-11-22T05:46:09.016Z,10.70
2022-11-22T05:48:58.699Z,10.13
2022-11-22T05:51:45.319Z,11.53
2022-11-22T05:54:32.206Z,11.90
2022-11-22T05:57:18.781Z,12.70
2022-11-22T06:00:06.843Z,11.03
2022-11-22T06:03:01.800Z,11.73
2022-11-22T06:05:53.601Z,12.03
2022-11-22T06:08:43.327Z,12.83
2022-11-22T06:11:29.946Z,12.70
2022-11-22T06:14:16.619Z,10.70
2022-11-22T06:17:03.470Z,11.47
2022-11-22T06:19:50.071Z,13.30
2022-11-22T06:22:38.456Z,12.40
2022-11-22T06:25:25.311Z,10.90
2022-11-22T06:28:11.990Z,13.60
2022-11-22T06:31:02.216Z,13.37
2022-11-22T06:33:49.756Z,11.40
2022-11-22T06:36:38.911Z,12.33
2022-11-22T06:39:26.778Z,12.63
2022-11-22T06:42:13.574Z,13.03
2022-11-22T06:45:00.358Z,12.50
2022-11-22T06:47:47.169Z,12.37
2022-11-22T06:50:33.891Z,14.67
2022-11-22T06:53:39.738Z,14.17
2022-11-22T06:56:30.595Z,11.93
2022-11-22T06:59:17.691Z,14.80
2022-11-22T07:02:06.597Z,13.10
2022-11-22T07:05:23.275Z,13.27
2022-11-22T07:08:06.627Z,12.13
2022-11-22T07:10:57.316Z,12.57
2022-11-22T07:13:46.384Z,24.30
2022-11-22T07:16:33.160Z,14.47
2022-11-22T07:19:19.509Z,14.10
2022-11-22T07:22:06.340Z,12.67
2022-11-22T07:24:53.143Z,14.43
2022-11-22T07:27:40.039Z,14.43
2022-11-22T07:30:28.169Z,13.13
2022-11-22T07:33:14.963Z,13.70
2022-11-22T07:36:05.755Z,12.63
2022-11-22T07:38:52.723Z,14.07
2022-11-22T07:41:39.294Z,12.77
2022-11-22T07:44:26.250Z,12.93
2022-11-22T07:47:18.397Z,13.83
2022-11-22T07:50:09.067Z,13.53
2022-11-22T07:52:59.157Z,15.37
2022-11-22T07:55:46.092Z,14.67
2022-11-22T07:58:33.663Z,14.23
2022-11-22T08:01:21.658Z,13.90
2022-11-22T08:04:09.750Z,14.67
2022-11-22T08:06:56.471Z,13.43
2022-11-22T08:09:43.296Z,13.37
2022-11-22T08:12:30.104Z,16.13
2022-11-22T08:15:17.833Z,14.40
2022-11-22T08:18:04.730Z,12.03
2022-11-22T08:20:52.776Z,12.93
2022-11-22T08:23:40.279Z,14.07
2022-11-22T08:26:27.396Z,13.63
2022-11-22T08:29:14.686Z,13.70
2022-11-22T08:32:01.335Z,12.33
2022-11-22T08:34:48.139Z,11.97
2022-11-22T08:37:36.292Z,14.80
2022-11-22T08:40:22.987Z,13.43
2022-11-22T08:43:09.816Z,12.43
2022-11-22T08:45:58.829Z,13.80
2022-11-22T08:48:46.145Z,15.27
2022-11-22T08:51:33.299Z,14.33
2022-11-22T08:54:21.441Z,14.57
2022-11-22T08:57:08.389Z,14.00
2022-11-22T08:59:55.025Z,16.43
2022-11-22T09:02:41.806Z,15.60
2022-11-22T09:05:29.459Z,14.30
2022-11-22T09:08:23.020Z,14.57
2022-11-22T09:11:13.462Z,14.53
2022-11-22T09:14:01.189Z,12.70
2022-11-22T09:16:47.970Z,14.73
2022-11-22T09:19:34.786Z,13.77
2022-11-22T09:22:25.359Z,14.83
2022-11-22T09:25:14.956Z,14.87
2022-11-22T09:28:03.301Z,16.17
2022-11-22T09:30:49.816Z,16.70
2022-11-22T09:33:38.556Z,15.57
2022-11-22T09:36:27.612Z,14.10
2022-11-22T09:39:17.667Z,12.60
2022-11-22T09:42:25.516Z,15.53
2022-11-22T09:45:38.362Z,16.07
2022-11-22T09:48:44.919Z,13.57
2022-11-22T09:51:45.652Z,15.97
2022-11-22T09:54:43.792Z,16.03
2022-11-22T09:57:38.009Z,15.37
2022-11-22T10:00:30.666Z,13.87
2022-11-22T10:03:25.598Z,15.53
2022-11-22T10:06:20.437Z,15.80
2022-11-22T10:09:21.623Z,14.63
2022-11-22T10:12:16.719Z,15.40
2022-11-22T10:15:09.151Z,15.97
2022-11-22T10:18:01.197Z,14.63
2022-11-22T10:20:49.095Z,15.70
2022-11-22T10:23:36.057Z,14.10
2022-11-22T10:26:26.189Z,14.83
2022-11-22T10:29:34.990Z,19.03
2022-11-22T10:32:42.328Z,13.73
